WetterOnline ( https://www.wetteronline.de )

Wetter aktuell Mahlstetten

Aktuelles Wetter: Klippeneck (975m)

6-stündlich | Neueste Meldungen
Ortszeit Temperatur Wetter
Sa, 18.09. 20:00 12.4° C wolkenlos
Sa, 18.09. 14:00 16.1° C leicht bewölkt
Sa, 18.09. 8:00 9.5° C wolkenlos
Sa, 18.09. 2:00 10.1° C wolkig
Fr, 17.09. 20:00 11.3° C bewölkt
Fr, 17.09. 14:00 13.4° C fast wolkenlos
Fr, 17.09. 8:00 9.3° C bewölkt
Fr, 17.09. 2:00 8.8° C leicht bewölkt
Ortszeit Temperatur Wetter
So, 19.09. 1:30 10.5° C leicht bewölkt
So, 19.09. 1:20 10.5° C leicht bewölkt
So, 19.09. 1:10 10.4° C wolkenlos
So, 19.09. 1:00 10.7° C leicht bewölkt
So, 19.09. 0:50 10.7° C leicht bewölkt
So, 19.09. 0:40 10.8° C wolkig
So, 19.09. 0:30 11.0° C leicht bewölkt
So, 19.09. 0:00 11.7° C bewölkt
Sa, 18.09. 23:30 11.9° C leicht bewölkt
Sa, 18.09. 23:00 11.8° C fast wolkenlos
Sa, 18.09. 22:30 11.6° C leicht bewölkt
Ortszeit Relative Feuchte Sichtweite
Sa, 18.09. 20:00 71% 50 km
Sa, 18.09. 14:00 56% >70 km
Sa, 18.09. 8:00 84% 30 km
Sa, 18.09. 2:00 82% 30 km
Fr, 17.09. 20:00 81% 50 km
Fr, 17.09. 14:00 65% 55 km
Fr, 17.09. 8:00 87% 40 km
Fr, 17.09. 2:00 90% 40 km
Ortszeit Relative Feuchte Sichtweite
So, 19.09. 1:30 82% 25 km
So, 19.09. 1:20 82% -
So, 19.09. 1:10 83% -
So, 19.09. 1:00 80% 29 km
So, 19.09. 0:50 80% -
So, 19.09. 0:40 78% -
So, 19.09. 0:30 74% 50 km
So, 19.09. 0:00 70% 55 km
Sa, 18.09. 23:30 70% 50 km
Sa, 18.09. 23:00 70% 50 km
Sa, 18.09. 22:30 70% 50 km
Ortszeit Niederschlagsmenge Niederschlagsart
Sa, 18.09. 20:00 0.0 l/m2 in 12 Std. -
Sa, 18.09. 14:00 0.0 l/m2 in 6 Std. -
Sa, 18.09. 8:00 0.0 l/m2 in 12 Std. -
Sa, 18.09. 2:00 0.0 l/m2 in 6 Std. -
Fr, 17.09. 20:00 0.0 l/m2 in 12 Std. -
Fr, 17.09. 14:00 0.0 l/m2 in 6 Std. -
Fr, 17.09. 8:00 0.0 l/m2 in 12 Std. -
Fr, 17.09. 2:00 0.0 l/m2 in 6 Std. -
Ortszeit Niederschlagsmenge Niederschlagsart
So, 19.09. 1:30 0.0 l/m2 in 1 Std. -
So, 19.09. 1:20 keine Meldung -
So, 19.09. 1:10 keine Meldung -
So, 19.09. 1:00 0.0 l/m2 in 1 Std. -
So, 19.09. 0:50 keine Meldung -
So, 19.09. 0:40 keine Meldung -
So, 19.09. 0:30 0.0 l/m2 in 1 Std. -
So, 19.09. 0:00 0.0 l/m2 in 1 Std. -
Sa, 18.09. 23:30 0.0 l/m2 in 1 Std. -
Sa, 18.09. 23:00 0.0 l/m2 in 1 Std. -
Sa, 18.09. 22:30 0.0 l/m2 in 1 Std. -
Ortszeit Stärke Spitze Richtung
km/h Bft. km/h Grad Sektor
Sa, 18.09. 20:00 25 4 32 100° O
Sa, 18.09. 14:00 11 2 29 100° O
Sa, 18.09. 8:00 22 4 25 90° O
Sa, 18.09. 2:00 18 3 29 100° O
Fr, 17.09. 20:00 13 3 24 70° O
Fr, 17.09. 14:00 7 2 14 310° NW
Fr, 17.09. 8:00 7 2 14 70° O
Fr, 17.09. 2:00 9 2 19 70° O
Ortszeit Stärke Spitze Richtung
km/h Bft. km/h Grad Sektor
So, 19.09. 1:30 31 5 39 90° O
So, 19.09. 1:20 31 5 - 90° O
So, 19.09. 1:10 31 5 - 90° O
So, 19.09. 1:00 33 5 41 90° O
So, 19.09. 0:50 33 5 - 90° O
So, 19.09. 0:40 32 5 - 90° O
So, 19.09. 0:30 30 5 39 90° O
So, 19.09. 0:00 29 5 36 100° O
Sa, 18.09. 23:30 28 4 35 100° O
Sa, 18.09. 23:00 28 4 35 100° O
Sa, 18.09. 22:30 26 4 33 100° O
Ortszeit Untergrenze Bedeckung Gattung
total tief tief mittel hoch
Sa, 18.09. 20:00 - 0/8 0/8 - - -
Sa, 18.09. 14:00 7500 m 6/8 0/8 - - -
Sa, 18.09. 8:00 - 0/8 0/8 - - -
Sa, 18.09. 2:00 990 m 6/8 3/8 - - -
Fr, 17.09. 20:00 930 m 7/8 7/8 - - -
Fr, 17.09. 14:00 810 m 1/8 1/8 - - -
Fr, 17.09. 8:00 840 m 7/8 7/8 - - -
Fr, 17.09. 2:00 750 m 3/8 3/8 - - -
Ortszeit Bedeckungsgrad in Achtel und Wolkenuntergrenze
So, 19.09. 1:30 1(6000m)
So, 19.09. 1:20 1(6000m) 2(9000m)
So, 19.09. 1:10 keine Wolken
So, 19.09. 1:00 4(6000m)
So, 19.09. 0:50 4(6000m)
So, 19.09. 0:40 5(6000m)
So, 19.09. 0:30 2(6000m)
So, 19.09. 0:00 2(6000m) 7(6600m) 7(7500m)
Sa, 18.09. 23:30 1(6900m) 5(9000m) 7(9000m)
Sa, 18.09. 23:00 1(9000m)
Sa, 18.09. 22:30 4(9000m)
Ortszeit Stationsdruck (hPa) Tendenz (hPa in 3 Std.)
Sa, 18.09. 20:00 904 - 0,6
Sa, 18.09. 14:00 906 - 0,1
Sa, 18.09. 8:00 905 + 0,3
Sa, 18.09. 2:00 906 0,0
Fr, 17.09. 20:00 905 - 0,1
Fr, 17.09. 14:00 906 - 0,6
Fr, 17.09. 8:00 906 - 0,1
Fr, 17.09. 2:00 907 + 0,2
Ortszeit Stationsdruck (hPa) Tendenz (hPa in 3 Std.)
So, 19.09. 1:30 904 - 0,9
So, 19.09. 1:20 904 keine Meldung
So, 19.09. 1:10 904 keine Meldung
So, 19.09. 1:00 904 - 1,0
So, 19.09. 0:50 904 keine Meldung
So, 19.09. 0:40 904 keine Meldung
So, 19.09. 0:30 904 - 0,9
So, 19.09. 0:00 904 - 0,8
Sa, 18.09. 23:30 904 - 0,3
Sa, 18.09. 23:00 904 0,0
Sa, 18.09. 22:30 905 + 0,1
Ortszeit Schneehöhe (cm)
Sa, 18.09. 20:00 0
Sa, 18.09. 14:00 0
Sa, 18.09. 8:00 0
Sa, 18.09. 2:00 0
Fr, 17.09. 20:00 0
Fr, 17.09. 14:00 0
Fr, 17.09. 8:00 0
Fr, 17.09. 2:00 0
Ortszeit Schneehöhe (cm)
So, 19.09. 1:30 0
So, 19.09. 1:20 0
So, 19.09. 1:10 0
So, 19.09. 1:00 0
So, 19.09. 0:50 0
So, 19.09. 0:40 0
So, 19.09. 0:30 0
So, 19.09. 0:00 0
Sa, 18.09. 23:30 0
Sa, 18.09. 23:00 0
Sa, 18.09. 22:30 0
Link zu dieser Seite / Seite empfehlen

Das Wetter in ...